Costa Romantica — IBCR — position and weather

sailwx.info

Track history (hours):
 
Tides and Currents Weather Stations Pressure Air Temp Water Temp Dewpoint Dewpoint Depression Visibility Wind Speed Wind Dir Waves Ship Positions

Costa Romantica

Last reported at 2017-Nov-17 11:10 UTC. Time now 2017-Nov-23 20:50 UTC.
Position N 34°45' E 139°15'.

Length 221 m; draft 7.8 m.

Type: Ship. MMSI: 247817000.

Date/timePositionNaut miles runAvg speedWind from/ knotsBaromVisibWave heightAir tempDewpointWater temp
2017-Nov-17 11:10N 34°45' E 139°15'316.0
2017-Nov-17 11:00N 34°47' E 139°17'815.9
2017-Nov-17 10:30N 34°53' E 139°23'816.4
2017-Nov-17 10:00N 34°58' E 139°31'816.5
2017-Nov-17 09:30N 35°03' E 139°39'714.5
2017-Nov-17 09:00N 35°08' E 139°45'713.5
2017-Nov-17 08:31N 35°15' E 139°46'613.0
2017-Nov-17 08:00N 35°21' E 139°42'816.3
2017-Nov-17 07:30N 35°28' E 139°48'612.0
2017-Nov-17 07:00N 35°33' E 139°50'611.4
2017-Nov-17 06:30N 35°39' E 139°46'0 0.6
2017-Nov-17 06:00N 35°39' E 139°46'0 0.0
2017-Nov-17 05:30N 35°39' E 139°46'0 0.0
2017-Nov-17 04:51N 35°39' E 139°46'0 0.0
2017-Nov-17 04:27N 35°39' E 139°46'0 0.0
2017-Nov-17 04:00N 35°39' E 139°46'0 0.0
2017-Nov-17 03:18N 35°39' E 139°46'0 0.0
2017-Nov-17 02:54N 35°39' E 139°46'0 0.0
2017-Nov-17 02:30N 35°39' E 139°46'0 0.0
2017-Nov-17 02:00N 35°39' E 139°46'0 0.0
2017-Nov-17 01:27N 35°39' E 139°46'0 0.0
2017-Nov-17 00:57N 35°39' E 139°46'0 0.0
2017-Nov-17 00:27N 35°39' E 139°46'0 0.0
2017-Nov-17 00:00N 35°39' E 139°46'0 0.0
2017-Nov-16 23:30N 35°39' E 139°46'0 0.0
2017-Nov-16 22:57N 35°39' E 139°46'0 0.4
2017-Nov-16 22:30N 35°39' E 139°46'510.9
2017-Nov-16 22:00N 35°34' E 139°49'4 8.6
2017-Nov-16 21:30N 35°31' E 139°53'510.8
2017-Nov-16 21:00N 35°27' E 139°49'511.0
2017-Nov-16 20:30N 35°22' E 139°45'5 9.9
2017-Nov-16 20:00N 35°17' E 139°45'611.8
2017-Nov-16 19:30N 35°11' E 139°47'611.1
2017-Nov-16 19:00N 35°06' E 139°44'713.0
2017-Nov-16 18:30N 35°02' E 139°38'714.1
2017-Nov-16 18:00N 34°58' E 139°31'714.8
2017-Nov-16 17:30N 34°53' E 139°24'  
2017-Nov-12 15:53N 33°53' E 134°53'719.4
2017-Nov-12 15:30N 34°01' E 134°56'1019.5
2017-Nov-12 15:00N 34°10' E 134°58'917.5
2017-Nov-12 14:30N 34°19' E 134°58'1019.4
2017-Nov-12 14:00N 34°26' E 135°06'1019.3
2017-Nov-12 13:30N 34°33' E 135°15'815.5
2017-Nov-12 13:00N 34°38' E 135°22'3 6.6
2017-Nov-12 12:29N 34°39' E 135°26'0 0.0
2017-Nov-12 11:59N 34°39' E 135°26'0 0.0
2017-Nov-12 11:29N 34°39' E 135°26'0 0.0
2017-Nov-12 10:59N 34°39' E 135°26'0 0.0
2017-Nov-12 10:29N 34°39' E 135°26'0 0.0
2017-Nov-12 09:59N 34°39' E 135°26'0 0.0
2017-Nov-12 09:29N 34°39' E 135°26'0 0.0
2017-Nov-12 08:53N 34°39' E 135°26'0 0.0
2017-Nov-12 08:23N 34°39' E 135°26'0 0.0
2017-Nov-12 07:59N 34°39' E 135°26'0 0.0
2017-Nov-12 07:23N 34°39' E 135°26'0 0.0
2017-Nov-12 06:59N 34°39' E 135°26'0 0.0
2017-Nov-12 06:23N 34°39' E 135°26'0 0.0
2017-Nov-12 05:59N 34°39' E 135°26'0 0.0
2017-Nov-12 05:29N 34°39' E 135°26'1 1.3
2017-Nov-12 05:00N 34°39' E 135°25'612.6
2017-Nov-12 04:30N 34°36' E 135°19'815.2
2017-Nov-12 04:00N 34°31' E 135°12'918.3
2017-Nov-12 03:30N 34°24' E 135°04'917.8
2017-Nov-12 03:00N 34°16' E 134°59'815.3
2017-Nov-12 02:30N 34°09' E 134°58'816.2
2017-Nov-12 02:00N 34°01' E 134°59'22014.2
2017-Nov-11 10:26N 34°51' E 139°19'818.2
2017-Nov-11 10:00N 34°57' E 139°26'918.7
2017-Nov-11 09:30N 35°01' E 139°36'918.0
2017-Nov-11 09:00N 35°07' E 139°44'714.6
2017-Nov-11 08:30N 35°14' E 139°47'612.1
2017-Nov-11 08:00N 35°20' E 139°43'611.3
2017-Nov-11 07:31N 35°25' E 139°44'815.8
2017-Nov-11 07:01N 35°31' E 139°51'713.2
2017-Nov-11 06:30N 35°36' E 139°47'3 4.8
2017-Nov-11 05:56N 35°39' E 139°46'0 0.0
2017-Nov-11 05:17N 35°39' E 139°46'0 0.0
2017-Nov-11 04:44N 35°39' E 139°46'0 0.0
2017-Nov-11 04:14N 35°39' E 139°46'0 0.0
2017-Nov-11 03:59N 35°39' E 139°46'0 0.0
2017-Nov-11 03:29N 35°39' E 139°46'0 0.0
2017-Nov-11 02:56N 35°39' E 139°46'0 0.0
2017-Nov-11 02:26N 35°39' E 139°46'0 0.0
2017-Nov-11 01:50N 35°39' E 139°46'0 0.0
2017-Nov-11 01:20N 35°39' E 139°46'0 0.0
2017-Nov-11 00:56N 35°39' E 139°46'0 0.0
2017-Nov-11 00:29N 35°39' E 139°46'0 0.0
2017-Nov-10 23:38N 35°39' E 139°46'0 0.0
2017-Nov-10 23:14N 35°39' E 139°46'0 0.0
2017-Nov-10 22:20N 35°39' E 139°46'0 0.0
2017-Nov-10 21:56N 35°39' E 139°46'0 0.0
2017-Nov-10 21:29N 35°39' E 139°46'0 0.0
2017-Nov-10 20:56N 35°39' E 139°46'0 0.0
2017-Nov-10 20:26N 35°39' E 139°46'0 0.1
2017-Nov-10 20:00N 35°39' E 139°46'3 6.4
2017-Nov-10 19:30N 35°36' E 139°47'611.4
2017-Nov-10 19:00N 35°32' E 139°52'511.0
2017-Nov-10 18:30N 35°27' E 139°49'612.5
2017-Nov-10 18:00N 35°22' E 139°45'611.2
2017-Nov-10 17:30N 35°16' E 139°46'611.8
2017-Nov-10 17:00N 35°10' E 139°47'612.5
2017-Nov-10 16:30N 35°05' E 139°42'917.3
2017-Nov-10 16:00N 34°60' E 139°34'816.9
2017-Nov-10 15:30N 34°54' E 139°26'  
Track history (hours):
 
Tides and Currents Weather Stations Pressure Air Temp Water Temp Dewpoint Dewpoint Depression Visibility Wind Speed Wind Dir Waves Ship Positions

Costa Romantica

Last reported at 2017-Nov-17 11:10 UTC. Time now 2017-Nov-23 20:50 UTC.
Position N 34°45' E 139°15'.

Length 221 m; draft 7.8 m.

Type: Ship. MMSI: 247817000.

Date/timePositionNaut miles runAvg speedWind from/ knotsBaromVisibWave heightAir tempDewpointWater temp
2017-Nov-17 11:10N 34°45' E 139°15'316.0
2017-Nov-17 11:00N 34°47' E 139°17'815.9
2017-Nov-17 10:30N 34°53' E 139°23'816.4
2017-Nov-17 10:00N 34°58' E 139°31'816.5
2017-Nov-17 09:30N 35°03' E 139°39'714.5
2017-Nov-17 09:00N 35°08' E 139°45'713.5
2017-Nov-17 08:31N 35°15' E 139°46'613.0
2017-Nov-17 08:00N 35°21' E 139°42'816.3
2017-Nov-17 07:30N 35°28' E 139°48'612.0
2017-Nov-17 07:00N 35°33' E 139°50'611.4
2017-Nov-17 06:30N 35°39' E 139°46'0 0.6
2017-Nov-17 06:00N 35°39' E 139°46'0 0.0
2017-Nov-17 05:30N 35°39' E 139°46'0 0.0
2017-Nov-17 04:51N 35°39' E 139°46'0 0.0
2017-Nov-17 04:27N 35°39' E 139°46'0 0.0
2017-Nov-17 04:00N 35°39' E 139°46'0 0.0
2017-Nov-17 03:18N 35°39' E 139°46'0 0.0
2017-Nov-17 02:54N 35°39' E 139°46'0 0.0
2017-Nov-17 02:30N 35°39' E 139°46'0 0.0
2017-Nov-17 02:00N 35°39' E 139°46'0 0.0
2017-Nov-17 01:27N 35°39' E 139°46'0 0.0
2017-Nov-17 00:57N 35°39' E 139°46'0 0.0
2017-Nov-17 00:27N 35°39' E 139°46'0 0.0
2017-Nov-17 00:00N 35°39' E 139°46'0 0.0
2017-Nov-16 23:30N 35°39' E 139°46'0 0.0
2017-Nov-16 22:57N 35°39' E 139°46'0 0.4
2017-Nov-16 22:30N 35°39' E 139°46'510.9
2017-Nov-16 22:00N 35°34' E 139°49'4 8.6
2017-Nov-16 21:30N 35°31' E 139°53'510.8
2017-Nov-16 21:00N 35°27' E 139°49'511.0
2017-Nov-16 20:30N 35°22' E 139°45'5 9.9
2017-Nov-16 20:00N 35°17' E 139°45'611.8
2017-Nov-16 19:30N 35°11' E 139°47'611.1
2017-Nov-16 19:00N 35°06' E 139°44'713.0
2017-Nov-16 18:30N 35°02' E 139°38'714.1
2017-Nov-16 18:00N 34°58' E 139°31'714.8
2017-Nov-16 17:30N 34°53' E 139°24'  
2017-Nov-12 15:53N 33°53' E 134°53'719.4
2017-Nov-12 15:30N 34°01' E 134°56'1019.5
2017-Nov-12 15:00N 34°10' E 134°58'917.5
2017-Nov-12 14:30N 34°19' E 134°58'1019.4
2017-Nov-12 14:00N 34°26' E 135°06'1019.3
2017-Nov-12 13:30N 34°33' E 135°15'815.5
2017-Nov-12 13:00N 34°38' E 135°22'3 6.6
2017-Nov-12 12:29N 34°39' E 135°26'0 0.0
2017-Nov-12 11:59N 34°39' E 135°26'0 0.0
2017-Nov-12 11:29N 34°39' E 135°26'0 0.0
2017-Nov-12 10:59N 34°39' E 135°26'0 0.0
2017-Nov-12 10:29N 34°39' E 135°26'0 0.0
2017-Nov-12 09:59N 34°39' E 135°26'0 0.0
2017-Nov-12 09:29N 34°39' E 135°26'0 0.0
2017-Nov-12 08:53N 34°39' E 135°26'0 0.0
2017-Nov-12 08:23N 34°39' E 135°26'0 0.0
2017-Nov-12 07:59N 34°39' E 135°26'0 0.0
2017-Nov-12 07:23N 34°39' E 135°26'0 0.0
2017-Nov-12 06:59N 34°39' E 135°26'0 0.0
2017-Nov-12 06:23N 34°39' E 135°26'0 0.0
2017-Nov-12 05:59N 34°39' E 135°26'0 0.0
2017-Nov-12 05:29N 34°39' E 135°26'1 1.3
2017-Nov-12 05:00N 34°39' E 135°25'612.6
2017-Nov-12 04:30N 34°36' E 135°19'815.2
2017-Nov-12 04:00N 34°31' E 135°12'918.3
2017-Nov-12 03:30N 34°24' E 135°04'917.8
2017-Nov-12 03:00N 34°16' E 134°59'815.3
2017-Nov-12 02:30N 34°09' E 134°58'816.2
2017-Nov-12 02:00N 34°01' E 134°59'22014.2
2017-Nov-11 10:26N 34°51' E 139°19'818.2
2017-Nov-11 10:00N 34°57' E 139°26'918.7
2017-Nov-11 09:30N 35°01' E 139°36'918.0
2017-Nov-11 09:00N 35°07' E 139°44'714.6
2017-Nov-11 08:30N 35°14' E 139°47'612.1
2017-Nov-11 08:00N 35°20' E 139°43'611.3
2017-Nov-11 07:31N 35°25' E 139°44'815.8
2017-Nov-11 07:01N 35°31' E 139°51'713.2
2017-Nov-11 06:30N 35°36' E 139°47'3 4.8
2017-Nov-11 05:56N 35°39' E 139°46'0 0.0
2017-Nov-11 05:17N 35°39' E 139°46'0 0.0
2017-Nov-11 04:44N 35°39' E 139°46'0 0.0
2017-Nov-11 04:14N 35°39' E 139°46'0 0.0
2017-Nov-11 03:59N 35°39' E 139°46'0 0.0
2017-Nov-11 03:29N 35°39' E 139°46'0 0.0
2017-Nov-11 02:56N 35°39' E 139°46'0 0.0
2017-Nov-11 02:26N 35°39' E 139°46'0 0.0
2017-Nov-11 01:50N 35°39' E 139°46'0 0.0
2017-Nov-11 01:20N 35°39' E 139°46'0 0.0
2017-Nov-11 00:56N 35°39' E 139°46'0 0.0
2017-Nov-11 00:29N 35°39' E 139°46'0 0.0
2017-Nov-10 23:38N 35°39' E 139°46'0 0.0
2017-Nov-10 23:14N 35°39' E 139°46'0 0.0
2017-Nov-10 22:20N 35°39' E 139°46'0 0.0
2017-Nov-10 21:56N 35°39' E 139°46'0 0.0
2017-Nov-10 21:29N 35°39' E 139°46'0 0.0
2017-Nov-10 20:56N 35°39' E 139°46'0 0.0
2017-Nov-10 20:26N 35°39' E 139°46'0 0.1
2017-Nov-10 20:00N 35°39' E 139°46'3 6.4
2017-Nov-10 19:30N 35°36' E 139°47'611.4
2017-Nov-10 19:00N 35°32' E 139°52'511.0
2017-Nov-10 18:30N 35°27' E 139°49'612.5
2017-Nov-10 18:00N 35°22' E 139°45'611.2
2017-Nov-10 17:30N 35°16' E 139°46'611.8
2017-Nov-10 17:00N 35°10' E 139°47'612.5
2017-Nov-10 16:30N 35°05' E 139°42'917.3
2017-Nov-10 16:00N 34°60' E 139°34'816.9
2017-Nov-10 15:30N 34°54' E 139°26'  

Dump ship's entire track history